Time;durP1;ratioP1;P1;durP2;ratioP2;P2;SDS_P1;SDS_P2;PMS_P1;PMS_P2;Temp;Humidity;BMP_temperature;BMP_pressure;BME280_temperature;BME280_humidity;BME280_pressure;Samples;Min_cycle;Max_cycle;Signal;HPM_P1;HPM_P2
2022/04/15 00:01:15;;;;;;;45.28;31.58;;;;;;;;;;5107059;27;20062;-69
2022/04/15 00:03:41;;;;;;;48.83;31.33;;;;;;;;;;5124282;27;20208;-69
2022/04/15 00:06:08;;;;;;;47.33;34.90;;;;;;;;;;5125530;27;20437;-69
2022/04/15 00:08:34;;;;;;;53.08;34.47;;;;;;;;;;5123532;27;20159;-68
2022/04/15 00:10:59;;;;;;;50.85;33.72;;;;;;;;;;5103996;27;20023;-69
2022/04/15 00:13:26;;;;;;;51.33;34.28;;;;;;;;;;5123834;27;20098;-70
2022/04/15 00:15:51;;;;;;;46.15;33.17;;;;;;;;;;5103307;27;20343;-69
2022/04/15 00:18:16;;;;;;;46.92;32.70;;;;;;;;;;5125454;27;20223;-70
2022/04/15 00:20:41;;;;;;;44.25;32.47;;;;;;;;;;5125346;27;20023;-68
2022/04/15 00:23:07;;;;;;;45.90;33.03;;;;;;;;;;5103607;27;20034;-70
2022/04/15 00:25:32;;;;;;;46.67;31.80;;;;;;;;;;5124347;27;20130;-70
2022/04/15 00:27:58;;;;;;;47.70;32.92;;;;;;;;;;5099828;27;20110;-68
2022/04/15 00:30:23;;;;;;;44.40;31.60;;;;;;;;;;5123386;27;20023;-68
2022/04/15 00:32:49;;;;;;;45.35;32.03;;;;;;;;;;5124281;27;20465;-68
2022/04/15 00:35:14;;;;;;;45.40;31.00;;;;;;;;;;5126383;27;20107;-67
2022/04/15 00:37:39;;;;;;;48.92;33.17;;;;;;;;;;5123488;27;20027;-68
2022/04/15 00:40:07;;;;;;;47.88;33.10;;;;;;;;;;5127769;27;20042;-68
2022/04/15 00:42:33;;;;;;;46.40;31.48;;;;;;;;;;5138988;27;20049;-68
2022/04/15 00:44:59;;;;;;;46.75;32.08;;;;;;;;;;5125061;27;20023;-68
2022/04/15 00:47:36;;;;;;;42.80;30.83;;;;;;;;;;5145945;27;20019;-68
2022/04/15 00:50:01;;;;;;;44.50;30.33;;;;;;;;;;5145241;27;20023;-68
2022/04/15 00:52:30;;;;;;;46.83;31.33;;;;;;;;;;5145078;27;20335;-68
2022/04/15 00:54:56;;;;;;;50.17;32.55;;;;;;;;;;5129194;27;20019;-68
2022/04/15 00:57:23;;;;;;;44.75;30.27;;;;;;;;;;5084310;27;20041;-68
2022/04/15 00:59:49;;;;;;;46.72;31.55;;;;;;;;;;5100037;28;20043;-68
2022/04/15 01:02:15;;;;;;;49.38;30.60;;;;;;;;;;5102755;28;20020;-68
2022/04/15 01:04:42;;;;;;;43.88;32.15;;;;;;;;;;5101631;28;20030;-68
2022/04/15 01:07:09;;;;;;;42.50;29.75;;;;;;;;;;5103255;27;20126;-67
2022/04/15 01:09:35;;;;;;;42.22;29.98;;;;;;;;;;5103913;28;20146;-68
2022/04/15 01:12:03;;;;;;;45.20;30.50;;;;;;;;;;5096484;28;20019;-68
2022/04/15 01:14:29;;;;;;;43.08;29.90;;;;;;;;;;5102998;28;20086;-68
2022/04/15 01:16:54;;;;;;;38.05;29.60;;;;;;;;;;5100803;28;20530;-67
2022/04/15 01:19:19;;;;;;;40.15;27.75;;;;;;;;;;5103424;28;20020;-69
2022/04/15 01:21:45;;;;;;;39.75;29.02;;;;;;;;;;5100801;28;20118;-70
2022/04/15 01:24:10;;;;;;;39.05;29.02;;;;;;;;;;5103333;28;20031;-68
2022/04/15 01:26:38;;;;;;;41.90;30.77;;;;;;;;;;5099861;28;20023;-68
2022/04/15 01:29:04;;;;;;;41.33;30.95;;;;;;;;;;5100863;28;20531;-69
2022/04/15 01:31:31;;;;;;;41.72;31.15;;;;;;;;;;5103128;28;20062;-69
2022/04/15 01:33:57;;;;;;;47.60;31.60;;;;;;;;;;5101819;28;20433;-68
2022/04/15 01:36:22;;;;;;;45.40;32.28;;;;;;;;;;5102157;28;20457;-68
2022/04/15 01:38:47;;;;;;;48.67;33.53;;;;;;;;;;5104083;28;20473;-67
2022/04/15 01:41:13;;;;;;;44.70;33.10;;;;;;;;;;5097923;28;20023;-67
2022/04/15 01:43:39;;;;;;;46.75;32.42;;;;;;;;;;5101915;28;20024;-68
2022/04/15 01:46:05;;;;;;;49.05;32.55;;;;;;;;;;5083583;28;20131;-68
2022/04/15 01:48:30;;;;;;;50.58;33.42;;;;;;;;;;5103635;28;20027;-67
2022/04/15 01:50:56;;;;;;;46.97;31.63;;;;;;;;;;5101362;28;20024;-67
2022/04/15 01:53:24;;;;;;;49.78;33.22;;;;;;;;;;5104149;28;20038;-67
2022/04/15 01:55:49;;;;;;;44.33;31.15;;;;;;;;;;5099468;28;20024;-67
2022/04/15 01:58:14;;;;;;;47.78;32.45;;;;;;;;;;5100206;28;20123;-68
2022/04/15 02:00:40;;;;;;;49.28;34.45;;;;;;;;;;5100957;28;20319;-68
2022/04/15 02:03:06;;;;;;;47.58;33.40;;;;;;;;;;5084393;28;20027;-68
2022/04/15 02:05:31;;;;;;;46.00;32.13;;;;;;;;;;5102873;28;20551;-67
2022/04/15 02:07:56;;;;;;;47.80;32.97;;;;;;;;;;5100809;28;20454;-69
2022/04/15 02:10:21;;;;;;;46.97;34.58;;;;;;;;;;5102494;28;20020;-68
2022/04/15 02:12:46;;;;;;;47.20;33.58;;;;;;;;;;5080353;28;20055;-68
2022/04/15 02:15:12;;;;;;;48.78;34.45;;;;;;;;;;5101440;28;20019;-68
2022/04/15 02:17:37;;;;;;;51.47;35.38;;;;;;;;;;5102874;28;20127;-68
2022/04/15 02:20:03;;;;;;;51.00;36.33;;;;;;;;;;5099589;28;20122;-69
2022/04/15 02:22:28;;;;;;;56.47;36.17;;;;;;;;;;5101579;28;20032;-69
2022/04/15 02:24:53;;;;;;;53.72;35.47;;;;;;;;;;5117334;28;20020;-69
2022/04/15 02:27:19;;;;;;;73.50;34.15;;;;;;;;;;5102080;28;20055;-68
2022/04/15 02:29:44;;;;;;;50.97;33.00;;;;;;;;;;5100646;28;20020;-69
2022/04/15 02:32:09;;;;;;;70.78;32.55;;;;;;;;;;5105469;28;20180;-68
2022/04/15 02:34:35;;;;;;;64.95;34.28;;;;;;;;;;5089151;28;20019;-69
2022/04/15 02:37:00;;;;;;;49.50;32.42;;;;;;;;;;5106448;28;20035;-69
2022/04/15 02:39:25;;;;;;;48.75;31.98;;;;;;;;;;5105000;28;20533;-69
2022/04/15 02:41:52;;;;;;;56.35;32.00;;;;;;;;;;5099786;28;20513;-69
2022/04/15 02:44:17;;;;;;;46.40;31.25;;;;;;;;;;5087460;28;20026;-69
2022/04/15 02:46:43;;;;;;;67.85;33.85;;;;;;;;;;5106761;28;20028;-69
2022/04/15 02:49:12;;;;;;;136.63;36.78;;;;;;;;;;5105534;27;20135;-68
2022/04/15 02:51:37;;;;;;;62.72;34.38;;;;;;;;;;5105061;28;20107;-69
2022/04/15 02:54:02;;;;;;;62.92;34.85;;;;;;;;;;5105679;28;20448;-68
2022/04/15 02:56:28;;;;;;;116.65;35.95;;;;;;;;;;5102317;27;20403;-68
2022/04/15 02:58:53;;;;;;;65.10;36.80;;;;;;;;;;5105176;27;20047;-68
2022/04/15 03:01:18;;;;;;;132.10;38.22;;;;;;;;;;5107826;27;20130;-68
2022/04/15 03:03:44;;;;;;;65.97;38.55;;;;;;;;;;5126857;27;20474;-68
2022/04/15 03:06:10;;;;;;;99.45;37.78;;;;;;;;;;5091034;27;20426;-68
2022/04/15 03:08:36;;;;;;;91.70;36.42;;;;;;;;;;5113177;27;20015;-69
2022/04/15 03:11:01;;;;;;;66.43;35.25;;;;;;;;;;5108876;27;20365;-68
2022/04/15 03:13:27;;;;;;;76.38;39.28;;;;;;;;;;5146116;27;20018;-69
2022/04/15 03:15:53;;;;;;;69.63;35.50;;;;;;;;;;5143390;27;20014;-69
2022/04/15 03:18:18;;;;;;;69.25;36.50;;;;;;;;;;5130060;27;20031;-69
2022/04/15 03:20:43;;;;;;;72.90;36.60;;;;;;;;;;5146891;27;20019;-69
2022/04/15 03:23:09;;;;;;;68.35;36.25;;;;;;;;;;5127665;27;20023;-69
2022/04/15 03:25:34;;;;;;;92.63;35.67;;;;;;;;;;5129283;27;20025;-69
2022/04/15 03:28:00;;;;;;;141.80;39.45;;;;;;;;;;5101734;27;20022;-69
2022/04/15 03:30:26;;;;;;;77.88;37.33;;;;;;;;;;5105999;27;20110;-68
2022/04/15 03:32:52;;;;;;;70.13;39.17;;;;;;;;;;5124268;27;20485;-68
2022/04/15 03:35:21;;;;;;;69.60;37.78;;;;;;;;;;5126642;27;20106;-68
2022/04/15 03:37:48;;;;;;;68.85;37.63;;;;;;;;;;5107790;27;20493;-68
2022/04/15 03:40:13;;;;;;;75.45;38.33;;;;;;;;;;5110825;27;20079;-69
2022/04/15 03:42:45;;;;;;;103.82;40.08;;;;;;;;;;5123180;27;20026;-69
2022/04/15 03:45:14;;;;;;;78.95;38.97;;;;;;;;;;5144992;27;20019;-68
2022/04/15 03:47:40;;;;;;;74.20;39.20;;;;;;;;;;5145750;27;20026;-68
2022/04/15 03:50:06;;;;;;;76.68;37.47;;;;;;;;;;5127903;27;20491;-68
2022/04/15 03:52:35;;;;;;;71.18;39.25;;;;;;;;;;5112229;27;20065;-68
2022/04/15 03:55:00;;;;;;;84.03;40.42;;;;;;;;;;5128819;27;20377;-68
2022/04/15 03:57:27;;;;;;;79.38;39.42;;;;;;;;;;5142235;27;20019;-68
2022/04/15 03:59:52;;;;;;;75.72;39.50;;;;;;;;;;5143299;27;20034;-68
2022/04/15 04:02:18;;;;;;;71.38;38.70;;;;;;;;;;5109550;27;20022;-68
2022/04/15 04:04:43;;;;;;;68.53;35.65;;;;;;;;;;5128569;27;20547;-69
2022/04/15 04:07:10;;;;;;;78.45;37.65;;;;;;;;;;5145706;27;20540;-69
2022/04/15 04:09:35;;;;;;;64.78;35.85;;;;;;;;;;5148065;27;20445;-69
2022/04/15 04:12:01;;;;;;;60.35;36.00;;;;;;;;;;5141576;27;20034;-67
2022/04/15 04:14:26;;;;;;;60.72;33.25;;;;;;;;;;5125461;27;20030;-67
2022/04/15 04:16:52;;;;;;;72.28;35.60;;;;;;;;;;5146028;27;20023;-68
2022/04/15 04:19:17;;;;;;;58.90;34.53;;;;;;;;;;5128202;27;20118;-68
2022/04/15 04:21:42;;;;;;;68.47;35.35;;;;;;;;;;5126760;27;20033;-68
2022/04/15 04:24:07;;;;;;;66.95;37.35;;;;;;;;;;5109907;27;20034;-68
2022/04/15 04:26:33;;;;;;;66.00;36.83;;;;;;;;;;5093948;27;20324;-68
2022/04/15 04:28:58;;;;;;;66.32;37.67;;;;;;;;;;5104460;27;20126;-69
2022/04/15 04:31:23;;;;;;;67.75;36.63;;;;;;;;;;5106959;27;20129;-69
2022/04/15 04:33:48;;;;;;;59.45;35.67;;;;;;;;;;5105781;27;20254;-68
2022/04/15 04:36:14;;;;;;;52.70;32.78;;;;;;;;;;5107111;27;20111;-68
2022/04/15 04:38:39;;;;;;;53.50;32.20;;;;;;;;;;5108916;27;20027;-68
2022/04/15 04:41:05;;;;;;;53.40;32.50;;;;;;;;;;5103708;27;20320;-67
2022/04/15 04:43:31;;;;;;;52.28;32.15;;;;;;;;;;5103551;27;20026;-68
2022/04/15 04:45:56;;;;;;;54.58;32.67;;;;;;;;;;5083783;27;20378;-68
2022/04/15 04:48:22;;;;;;;51.00;32.10;;;;;;;;;;5087006;27;20023;-68
2022/04/15 04:50:47;;;;;;;54.35;33.22;;;;;;;;;;5103989;27;20678;-69
2022/04/15 04:53:13;;;;;;;50.92;32.72;;;;;;;;;;5121771;27;20034;-68
2022/04/15 04:55:39;;;;;;;53.92;33.70;;;;;;;;;;5104684;27;20087;-67
2022/04/15 04:58:04;;;;;;;54.42;32.90;;;;;;;;;;5081796;27;20027;-69
2022/04/15 05:00:29;;;;;;;52.75;32.30;;;;;;;;;;5122786;27;20181;-68
2022/04/15 05:02:59;;;;;;;56.78;33.65;;;;;;;;;;5122937;27;20380;-69
2022/04/15 05:05:25;;;;;;;54.55;32.15;;;;;;;;;;5109516;27;20226;-69
2022/04/15 05:07:51;;;;;;;50.22;31.05;;;;;;;;;;5124768;27;20030;-68
2022/04/15 05:10:16;;;;;;;48.95;30.13;;;;;;;;;;5142733;27;20014;-69
2022/04/15 05:12:41;;;;;;;46.40;28.88;;;;;;;;;;5118641;27;20454;-69
2022/04/15 05:15:07;;;;;;;41.13;27.73;;;;;;;;;;5104201;27;20362;-70
2022/04/15 05:17:32;;;;;;;37.38;24.30;;;;;;;;;;5142128;27;20011;-69
2022/04/15 05:19:58;;;;;;;37.17;24.23;;;;;;;;;;5106316;27;20480;-68
2022/04/15 05:22:23;;;;;;;35.33;24.00;;;;;;;;;;5105802;27;20048;-67
2022/04/15 05:24:49;;;;;;;35.15;24.38;;;;;;;;;;5127674;27;20043;-68
2022/04/15 05:27:15;;;;;;;37.53;23.83;;;;;;;;;;5099831;27;20450;-68
2022/04/15 05:29:40;;;;;;;35.13;23.77;;;;;;;;;;5105202;27;20031;-67
2022/04/15 05:32:05;;;;;;;39.63;23.85;;;;;;;;;;5089000;27;20051;-68
2022/04/15 05:34:30;;;;;;;32.70;22.45;;;;;;;;;;5125389;27;20023;-68
2022/04/15 05:36:56;;;;;;;36.20;23.60;;;;;;;;;;5106987;27;20019;-70
2022/04/15 05:39:21;;;;;;;34.08;21.73;;;;;;;;;;5124373;27;20101;-67
2022/04/15 05:41:46;;;;;;;35.55;22.60;;;;;;;;;;5100864;27;20027;-69
2022/04/15 05:44:13;;;;;;;31.50;20.77;;;;;;;;;;5103720;27;20165;-69
2022/04/15 05:46:39;;;;;;;33.33;21.50;;;;;;;;;;5125401;27;20023;-68
2022/04/15 05:49:08;;;;;;;29.10;20.17;;;;;;;;;;5124743;27;20020;-69
2022/04/15 05:51:33;;;;;;;30.30;20.40;;;;;;;;;;5124477;27;20102;-68
2022/04/15 05:53:59;;;;;;;27.88;19.75;;;;;;;;;;5106343;27;20168;-67
2022/04/15 05:56:24;;;;;;;25.52;18.60;;;;;;;;;;5083458;27;20144;-68
2022/04/15 05:58:49;;;;;;;28.00;20.05;;;;;;;;;;5105783;27;20431;-68
2022/04/15 06:01:15;;;;;;;28.55;19.33;;;;;;;;;;5123391;27;20468;-68
2022/04/15 06:03:40;;;;;;;27.58;20.23;;;;;;;;;;5088700;27;20473;-68
2022/04/15 06:06:06;;;;;;;31.45;21.05;;;;;;;;;;5089257;27;20039;-68
2022/04/15 06:08:31;;;;;;;32.13;21.00;;;;;;;;;;5109666;27;20023;-69
2022/04/15 06:10:56;;;;;;;29.35;20.48;;;;;;;;;;5122508;27;20019;-69
2022/04/15 06:13:25;;;;;;;32.97;20.83;;;;;;;;;;5127645;27;20025;-69
2022/04/15 06:15:51;;;;;;;30.85;20.23;;;;;;;;;;5128981;27;20027;-69
2022/04/15 06:18:17;;;;;;;29.10;19.90;;;;;;;;;;5148278;27;20078;-69
2022/04/15 06:20:43;;;;;;;28.95;20.00;;;;;;;;;;5148952;27;20405;-69
2022/04/15 06:23:08;;;;;;;24.30;18.85;;;;;;;;;;5148504;27;20271;-69
2022/04/15 06:25:33;;;;;;;27.67;19.77;;;;;;;;;;5129708;27;20353;-68
2022/04/15 06:27:59;;;;;;;21.75;17.60;;;;;;;;;;5108229;27;20054;-69
2022/04/15 06:30:24;;;;;;;26.65;17.13;;;;;;;;;;5146927;27;20094;-70
2022/04/15 06:32:51;;;;;;;22.88;17.35;;;;;;;;;;5148409;27;20014;-68
2022/04/15 06:35:17;;;;;;;24.10;16.90;;;;;;;;;;5129089;27;20111;-68
2022/04/15 06:37:42;;;;;;;22.13;17.05;;;;;;;;;;5130208;27;20237;-69
2022/04/15 06:40:07;;;;;;;23.70;17.13;;;;;;;;;;5111358;27;20121;-69
2022/04/15 06:42:34;;;;;;;20.90;17.00;;;;;;;;;;5124625;27;20174;-69
2022/04/15 06:45:00;;;;;;;24.27;17.80;;;;;;;;;;5128098;27;20027;-69
2022/04/15 06:47:25;;;;;;;24.27;19.42;;;;;;;;;;5111258;27;20844;-69
2022/04/15 06:49:50;;;;;;;24.52;19.13;;;;;;;;;;5148142;27;20015;-69
2022/04/15 06:52:17;;;;;;;25.25;20.20;;;;;;;;;;5111520;27;20160;-69
2022/04/15 06:54:43;;;;;;;26.85;20.88;;;;;;;;;;5126761;27;20334;-68
2022/04/15 06:57:11;;;;;;;34.95;20.30;;;;;;;;;;5084379;27;20030;-69
2022/04/15 06:59:37;;;;;;;27.35;20.52;;;;;;;;;;5126397;27;20058;-69
2022/04/15 07:02:02;;;;;;;26.60;20.13;;;;;;;;;;5124100;27;20478;-68
2022/04/15 07:04:28;;;;;;;29.33;22.08;;;;;;;;;;5123430;27;20324;-69
2022/04/15 07:06:53;;;;;;;24.40;20.17;;;;;;;;;;5124657;27;20027;-68
2022/04/15 07:09:19;;;;;;;26.80;22.15;;;;;;;;;;5124803;27;20039;-69
2022/04/15 07:11:44;;;;;;;25.98;20.52;;;;;;;;;;5120550;27;20442;-68
2022/04/15 07:14:09;;;;;;;24.92;19.85;;;;;;;;;;5116010;27;20081;-69
2022/04/15 07:16:34;;;;;;;23.52;18.40;;;;;;;;;;5147773;27;20015;-69
2022/04/15 07:19:07;;;;;;;23.95;19.80;;;;;;;;;;5147797;27;20014;-69
2022/04/15 07:21:36;;;;;;;23.55;19.98;;;;;;;;;;5110977;27;20061;-68
2022/04/15 07:24:02;;;;;;;23.10;20.58;;;;;;;;;;5126982;27;20110;-68
2022/04/15 07:26:27;;;;;;;25.45;20.80;;;;;;;;;;5140178;27;20395;-68
2022/04/15 07:28:52;;;;;;;25.00;19.73;;;;;;;;;;5124387;27;20110;-70
2022/04/15 07:31:18;;;;;;;22.50;18.52;;;;;;;;;;5110715;27;20079;-68
2022/04/15 07:33:46;;;;;;;21.90;18.67;;;;;;;;;;5107878;27;20024;-68
2022/04/15 07:38:55;;;;;;;23.70;19.75;;;;;;;;;;5127185;27;20199;-68
2022/04/15 07:41:20;;;;;;;22.00;18.65;;;;;;;;;;5083939;27;20033;-68
2022/04/15 07:43:48;;;;;;;20.50;18.38;;;;;;;;;;5123325;27;20015;-68
2022/04/15 07:46:14;;;;;;;23.00;18.10;;;;;;;;;;5105370;27;20027;-68
2022/04/15 07:48:39;;;;;;;18.73;16.92;;;;;;;;;;5106558;27;20223;-68
2022/04/15 07:51:04;;;;;;;19.27;16.45;;;;;;;;;;5089499;27;20072;-69
2022/04/15 07:53:30;;;;;;;18.20;16.08;;;;;;;;;;5105951;27;20034;-69
2022/04/15 07:55:55;;;;;;;17.35;15.30;;;;;;;;;;5103591;27;20494;-69
2022/04/15 07:58:20;;;;;;;17.75;13.20;;;;;;;;;;5086984;27;20027;-69
2022/04/15 08:00:46;;;;;;;15.23;12.85;;;;;;;;;;5103472;27;20043;-69
2022/04/15 08:03:21;;;;;;;13.73;12.23;;;;;;;;;;5105154;27;20035;-69
2022/04/15 08:05:47;;;;;;;14.93;11.75;;;;;;;;;;5106930;27;20069;-69
2022/04/15 08:08:12;;;;;;;13.85;12.13;;;;;;;;;;5106623;27;20019;-69
2022/04/15 08:10:38;;;;;;;14.48;12.00;;;;;;;;;;5105772;27;20035;-69
2022/04/15 08:13:04;;;;;;;14.13;10.45;;;;;;;;;;5085108;27;20023;-69
2022/04/15 08:15:30;;;;;;;14.95;10.52;;;;;;;;;;5102767;27;20435;-68
2022/04/15 08:17:55;;;;;;;10.85;9.73;;;;;;;;;;5105920;27;20019;-68
2022/04/15 08:20:20;;;;;;;11.05;9.73;;;;;;;;;;5123306;27;20109;-68
2022/04/15 08:22:46;;;;;;;13.02;10.48;;;;;;;;;;5105274;27;20019;-68
2022/04/15 08:25:11;;;;;;;11.88;10.48;;;;;;;;;;5106471;27;20118;-69
2022/04/15 08:27:36;;;;;;;10.48;9.20;;;;;;;;;;5080898;27;20244;-68
2022/04/15 08:30:02;;;;;;;10.13;9.07;;;;;;;;;;5085888;27;20024;-68
2022/04/15 08:32:33;;;;;;;10.95;8.75;;;;;;;;;;5122737;27;20008;-68
2022/04/15 08:34:59;;;;;;;10.98;7.68;;;;;;;;;;5107241;27;20023;-69
2022/04/15 08:37:24;;;;;;;9.07;7.28;;;;;;;;;;5101337;27;20034;-69
2022/04/15 08:39:49;;;;;;;9.77;8.07;;;;;;;;;;5106919;27;20019;-68
2022/04/15 08:42:15;;;;;;;8.80;7.75;;;;;;;;;;5098738;27;20042;-67
2022/04/15 08:44:42;;;;;;;9.95;7.75;;;;;;;;;;5103660;27;20113;-69
2022/04/15 08:47:07;;;;;;;8.50;6.35;;;;;;;;;;5105145;27;20027;-69
2022/04/15 08:49:34;;;;;;;8.75;7.43;;;;;;;;;;5123827;27;20445;-68
2022/04/15 08:52:00;;;;;;;10.57;6.82;;;;;;;;;;5124013;27;20027;-69
2022/04/15 08:54:25;;;;;;;8.60;6.68;;;;;;;;;;5122446;27;20015;-69
2022/04/15 08:56:50;;;;;;;11.32;6.85;;;;;;;;;;5119136;27;20027;-69
2022/04/15 08:59:16;;;;;;;11.75;6.60;;;;;;;;;;5103901;27;20466;-69
2022/04/15 09:01:43;;;;;;;8.65;6.68;;;;;;;;;;5105314;27;20500;-69
2022/04/15 09:04:08;;;;;;;9.25;6.57;;;;;;;;;;5106365;27;20022;-69
2022/04/15 09:06:34;;;;;;;11.85;6.45;;;;;;;;;;5122171;27;20041;-69
2022/04/15 09:09:03;;;;;;;8.27;6.28;;;;;;;;;;5105239;27;20473;-68
2022/04/15 09:11:33;;;;;;;7.88;6.18;;;;;;;;;;5099695;27;20068;-69
2022/04/15 09:13:59;;;;;;;7.53;6.82;;;;;;;;;;5102933;27;20848;-67
2022/04/15 09:16:25;;;;;;;8.18;6.35;;;;;;;;;;5102618;27;20032;-69
2022/04/15 09:18:54;;;;;;;9.50;7.32;;;;;;;;;;5106087;27;20053;-69
2022/04/15 09:21:20;;;;;;;6.95;6.30;;;;;;;;;;5106990;27;20097;-69
2022/04/15 09:23:50;;;;;;;7.93;6.45;;;;;;;;;;5108330;27;20036;-69
2022/04/15 09:26:16;;;;;;;7.50;6.47;;;;;;;;;;5099505;27;20093;-69
2022/04/15 09:28:41;;;;;;;7.55;6.15;;;;;;;;;;5125616;27;20015;-68
2022/04/15 09:31:13;;;;;;;7.78;6.40;;;;;;;;;;5121980;27;20060;-68
2022/04/15 09:33:38;;;;;;;7.80;7.00;;;;;;;;;;5102015;27;20585;-68
2022/04/15 09:36:04;;;;;;;8.75;6.68;;;;;;;;;;5086993;27;20050;-68
2022/04/15 09:38:42;;;;;;;8.02;7.05;;;;;;;;;;5086909;27;20110;-70
2022/04/15 09:41:20;;;;;;;8.38;7.30;;;;;;;;;;5120956;27;20311;-69
2022/04/15 09:43:51;;;;;;;7.90;7.20;;;;;;;;;;5100572;27;20019;-69
2022/04/15 09:46:16;;;;;;;8.20;6.75;;;;;;;;;;5103689;27;20118;-69
2022/04/15 09:48:56;;;;;;;7.65;6.57;;;;;;;;;;5140997;27;20554;-69
2022/04/15 09:51:22;;;;;;;7.13;6.20;;;;;;;;;;5125379;27;20030;-68
2022/04/15 09:53:51;;;;;;;7.10;6.13;;;;;;;;;;5107547;27;20075;-70
2022/04/15 09:56:17;;;;;;;8.65;6.78;;;;;;;;;;5119973;27;20030;-70
2022/04/15 09:58:44;;;;;;;8.52;6.57;;;;;;;;;;5140862;27;20284;-69
2022/04/15 10:01:10;;;;;;;7.65;6.22;;;;;;;;;;5093505;27;20224;-68
2022/04/15 10:03:38;;;;;;;7.65;6.72;;;;;;;;;;5123177;27;20015;-69
2022/04/15 10:06:05;;;;;;;7.93;6.50;;;;;;;;;;5106031;27;20099;-70
2022/04/15 10:08:31;;;;;;;7.68;6.88;;;;;;;;;;5086396;27;20019;-69
2022/04/15 10:10:56;;;;;;;7.63;6.82;;;;;;;;;;5083316;27;20014;-69
2022/04/15 10:13:28;;;;;;;7.50;6.70;;;;;;;;;;5101221;27;20042;-69
2022/04/15 10:15:54;;;;;;;9.30;7.65;;;;;;;;;;5118653;27;20071;-69
2022/04/15 10:18:20;;;;;;;8.32;7.30;;;;;;;;;;5111678;27;20126;-69
2022/04/15 10:20:45;;;;;;;10.98;8.05;;;;;;;;;;5121708;27;20219;-69
2022/04/15 10:23:11;;;;;;;10.40;7.45;;;;;;;;;;5121530;27;20479;-69
2022/04/15 10:25:37;;;;;;;8.82;7.00;;;;;;;;;;5123001;27;20014;-69
2022/04/15 10:28:06;;;;;;;8.10;7.13;;;;;;;;;;5118581;27;20015;-69
2022/04/15 10:30:32;;;;;;;8.50;7.70;;;;;;;;;;5120663;27;20030;-68
2022/04/15 10:32:57;;;;;;;8.18;7.47;;;;;;;;;;5141251;27;20015;-69
2022/04/15 10:35:27;;;;;;;13.32;8.35;;;;;;;;;;5125705;27;20026;-70
2022/04/15 10:37:55;;;;;;;10.35;7.20;;;;;;;;;;5103786;27;20019;-69
2022/04/15 10:40:26;;;;;;;8.75;7.95;;;;;;;;;;5104838;27;20016;-69
2022/04/15 10:42:51;;;;;;;8.70;7.68;;;;;;;;;;5096863;27;20026;-69
2022/04/15 10:45:34;;;;;;;8.68;7.78;;;;;;;;;;5121076;27;20020;-68
2022/04/15 10:48:00;;;;;;;8.93;7.00;;;;;;;;;;5104889;27;20110;-70
2022/04/15 10:50:29;;;;;;;8.23;7.40;;;;;;;;;;5123420;27;20114;-69
2022/04/15 10:53:13;;;;;;;8.98;7.90;;;;;;;;;;5089401;27;20027;-67
2022/04/15 10:55:43;;;;;;;8.02;7.22;;;;;;;;;;5125721;27;20011;-69
2022/04/15 10:58:15;;;;;;;10.65;7.60;;;;;;;;;;5104389;27;20071;-70
2022/04/15 11:03:24;;;;;;;8.25;7.45;;;;;;;;;;5111975;27;20175;-68
2022/04/15 11:05:50;;;;;;;8.73;7.82;;;;;;;;;;5125944;27;20131;-70
2022/04/15 11:08:19;;;;;;;9.18;7.28;;;;;;;;;;5108427;27;20090;-69
2022/04/15 11:10:58;;;;;;;11.18;7.25;;;;;;;;;;5122265;27;20465;-69
2022/04/15 11:13:30;;;;;;;8.90;7.72;;;;;;;;;;5105973;27;20020;-70
2022/04/15 11:15:58;;;;;;;7.60;6.85;;;;;;;;;;5104545;27;20019;-69
2022/04/15 11:18:24;;;;;;;8.82;6.68;;;;;;;;;;5126028;27;20022;-68
2022/04/15 11:20:49;;;;;;;8.50;7.60;;;;;;;;;;5123841;27;20433;-68
2022/04/15 11:23:15;;;;;;;8.05;7.25;;;;;;;;;;5124310;27;20035;-70
2022/04/15 11:25:41;;;;;;;9.07;8.10;;;;;;;;;;5104886;27;20485;-68
2022/04/15 11:28:07;;;;;;;11.75;7.90;;;;;;;;;;5102339;27;20130;-69
2022/04/15 11:30:33;;;;;;;10.98;7.47;;;;;;;;;;5121222;27;20022;-69
2022/04/15 11:32:58;;;;;;;8.38;7.57;;;;;;;;;;5105534;27;20026;-68
2022/04/15 11:35:31;;;;;;;9.23;8.05;;;;;;;;;;5106445;27;20031;-68
2022/04/15 11:37:56;;;;;;;;;;;;;;;;;;5106872;27;20027;-68
2022/04/15 11:40:22;;;;;;;9.73;7.07;;;;;;;;;;5126260;27;19913;-68
2022/04/15 11:42:47;;;;;;;8.77;7.43;;;;;;;;;;5099110;27;20019;-68
2022/04/15 11:45:14;;;;;;;9.23;8.27;;;;;;;;;;5104324;27;20019;-69
2022/04/15 11:47:40;;;;;;;8.95;8.15;;;;;;;;;;5123276;27;20508;-68
2022/04/15 11:50:05;;;;;;;8.38;7.63;;;;;;;;;;5105375;27;20023;-68
2022/04/15 11:52:31;;;;;;;9.52;8.45;;;;;;;;;;5124133;27;20521;-69
2022/04/15 11:54:59;;;;;;;8.25;7.53;;;;;;;;;;5104536;27;20381;-70
2022/04/15 11:57:25;;;;;;;7.55;6.85;;;;;;;;;;5101731;27;20011;-70
2022/04/15 11:59:51;;;;;;;10.73;7.97;;;;;;;;;;5102321;27;20280;-69
2022/04/15 12:02:22;;;;;;;8.43;7.63;;;;;;;;;;5117461;27;20029;-68
2022/04/15 12:04:55;;;;;;;8.88;8.05;;;;;;;;;;5112415;27;20113;-70
2022/04/15 12:07:21;;;;;;;9.43;8.45;;;;;;;;;;5125470;27;20298;-68
2022/04/15 12:09:46;;;;;;;9.25;8.38;;;;;;;;;;5124698;27;20105;-68
2022/04/15 12:12:12;;;;;;;9.70;8.82;;;;;;;;;;5140844;27;20130;-68
2022/04/15 12:14:38;;;;;;;10.98;7.65;;;;;;;;;;5105997;27;20377;-70
2022/04/15 12:17:05;;;;;;;9.07;7.43;;;;;;;;;;5126196;27;20353;-68
2022/04/15 12:19:30;;;;;;;8.30;7.40;;;;;;;;;;5146907;27;20532;-70
2022/04/15 12:21:58;;;;;;;9.43;8.10;;;;;;;;;;5123381;27;20141;-69
2022/04/15 12:24:24;;;;;;;10.85;7.63;;;;;;;;;;5146808;27;20083;-69
2022/04/15 12:26:50;;;;;;;10.68;6.07;;;;;;;;;;5119934;27;20033;-68
2022/04/15 12:32:21;;;;;;;7.47;6.75;;;;;;;;;;5146179;27;20030;-68
2022/04/15 12:34:47;;;;;;;9.50;7.15;;;;;;;;;;5145451;27;20453;-68
2022/04/15 12:37:33;;;;;;;8.02;7.22;;;;;;;;;;5144236;27;20066;-69
2022/04/15 12:39:59;;;;;;;9.45;7.50;;;;;;;;;;5126335;27;20034;-69
2022/04/15 12:42:28;;;;;;;10.32;7.18;;;;;;;;;;5120897;27;20022;-69
2022/04/15 12:44:53;;;;;;;8.25;6.70;;;;;;;;;;5124975;27;20048;-69
2022/04/15 12:47:18;;;;;;;8.50;7.53;;;;;;;;;;5126842;27;20460;-70
2022/04/15 12:49:44;;;;;;;8.55;7.18;;;;;;;;;;5145126;27;20197;-69
2022/04/15 12:52:13;;;;;;;8.32;6.18;;;;;;;;;;5146065;27;20027;-70
2022/04/15 12:54:57;;;;;;;19.70;7.13;;;;;;;;;;5144854;27;20019;-69
2022/04/15 12:57:26;;;;;;;13.88;7.30;;;;;;;;;;5125611;27;20026;-70
2022/04/15 12:59:51;;;;;;;12.90;7.57;;;;;;;;;;5103273;27;21448;-71
2022/04/15 13:02:16;;;;;;;8.27;6.78;;;;;;;;;;5087338;27;20027;-70
2022/04/15 13:04:48;;;;;;;7.63;6.55;;;;;;;;;;5087418;27;20029;-70
2022/04/15 13:07:13;;;;;;;11.10;6.75;;;;;;;;;;5123659;27;20027;-70
2022/04/15 13:09:39;;;;;;;10.05;6.38;;;;;;;;;;5088428;27;20041;-70
2022/04/15 13:12:04;;;;;;;10.77;6.95;;;;;;;;;;5084499;27;20050;-69
2022/04/15 13:14:30;;;;;;;9.73;7.00;;;;;;;;;;5105401;27;20030;-70
2022/04/15 13:16:55;;;;;;;9.52;6.95;;;;;;;;;;5121403;27;20056;-71
2022/04/15 13:19:20;;;;;;;11.23;6.25;;;;;;;;;;5123185;27;20020;-70
2022/04/15 13:21:46;;;;;;;10.02;7.32;;;;;;;;;;5120423;27;20031;-69
2022/04/15 13:24:11;;;;;;;9.60;7.28;;;;;;;;;;5122667;27;20381;-70
2022/04/15 13:26:36;;;;;;;9.85;7.70;;;;;;;;;;5103107;27;20125;-68
2022/04/15 13:29:04;;;;;;;12.88;7.30;;;;;;;;;;5103910;27;20525;-68
2022/04/15 13:31:29;;;;;;;9.13;7.35;;;;;;;;;;5103661;27;20130;-68
2022/04/15 13:33:54;;;;;;;8.57;7.03;;;;;;;;;;5100299;27;20450;-67
2022/04/15 13:36:19;;;;;;;10.23;7.88;;;;;;;;;;5121647;27;20083;-68
2022/04/15 13:38:45;;;;;;;8.13;7.25;;;;;;;;;;5103033;27;20019;-68
2022/04/15 13:41:14;;;;;;;9.35;6.82;;;;;;;;;;5102008;27;20683;-68
2022/04/15 13:43:40;;;;;;;9.77;7.43;;;;;;;;;;5102190;27;20469;-69
2022/04/15 13:46:06;;;;;;;9.65;6.78;;;;;;;;;;5085550;27;20088;-68
2022/04/15 13:48:31;;;;;;;11.13;7.00;;;;;;;;;;5086461;27;20058;-67
2022/04/15 13:50:57;;;;;;;9.25;8.00;;;;;;;;;;5120645;27;20022;-67
2022/04/15 13:58:50;;;;;;;9.63;7.88;;;;;;;;;;5104676;27;20089;-68
2022/04/15 14:01:26;;;;;;;9.52;8.18;;;;;;;;;;5105309;27;20338;-69
2022/04/15 14:03:51;;;;;;;8.32;7.53;;;;;;;;;;5140385;27;20019;-67
2022/04/15 14:06:17;;;;;;;8.75;6.93;;;;;;;;;;5142357;27;20388;-68
2022/04/15 14:08:48;;;;;;;10.60;8.25;;;;;;;;;;5141933;27;20027;-68
2022/04/15 14:11:16;;;;;;;9.40;7.85;;;;;;;;;;5106469;27;20019;-68
2022/04/15 14:13:43;;;;;;;8.80;7.90;;;;;;;;;;5138938;27;20063;-69
2022/04/15 14:16:12;;;;;;;10.05;8.07;;;;;;;;;;5101496;27;20318;-69
2022/04/15 14:18:37;;;;;;;8.32;7.53;;;;;;;;;;5123344;27;20023;-68
2022/04/15 14:21:03;;;;;;;14.38;8.55;;;;;;;;;;5121131;27;20333;-68
2022/04/15 14:23:28;;;;;;;11.68;8.60;;;;;;;;;;5086529;27;20319;-69
2022/04/15 14:25:53;;;;;;;9.25;7.97;;;;;;;;;;5121378;27;20026;-67
2022/04/15 14:28:19;;;;;;;11.45;8.90;;;;;;;;;;5146993;27;20146;-67
2022/04/15 14:30:44;;;;;;;11.02;9.02;;;;;;;;;;5146552;27;20019;-69
2022/04/15 14:33:10;;;;;;;8.95;7.88;;;;;;;;;;5128115;27;20466;-70
2022/04/15 14:35:36;;;;;;;9.98;8.98;;;;;;;;;;5148042;27;20023;-68